Time;durP1;ratioP1;P1;durP2;ratioP2;P2;SDS_P1;SDS_P2;PMS_P1;PMS_P2;Temp;Humidity;BMP_temperature;BMP_pressure;BME280_temperature;BME280_humidity;BME280_pressure;Samples;Min_cycle;Max_cycle;Signal;HPM_P1;HPM_P2
2023/12/20 00:01:06;;;;;;;20.85;3.38;;;5.20;93.90;;;;;;5075026;28;20024;-49
2023/12/20 00:03:34;;;;;;;14.57;2.35;;;5.20;94.10;;;;;;5074153;28;20104;-49
2023/12/20 00:06:04;;;;;;;18.38;3.90;;;5.20;94.10;;;;;;5074566;28;20031;-47
2023/12/20 00:08:31;;;;;;;14.15;1.90;;;5.20;94.10;;;;;;5074564;28;20094;-47
2023/12/20 00:10:58;;;;;;;14.82;2.53;;;5.20;94.20;;;;;;5074155;28;20523;-47
2023/12/20 00:13:25;;;;;;;15.38;3.30;;;5.10;94.10;;;;;;5074780;28;20410;-47
2023/12/20 00:15:52;;;;;;;15.82;2.70;;;5.20;94.20;;;;;;5074397;28;20024;-48
2023/12/20 00:18:17;;;;;;;15.23;2.80;;;5.10;94.20;;;;;;5074882;28;20032;-48
2023/12/20 00:20:44;;;;;;;19.27;2.53;;;5.10;94.40;;;;;;5074332;28;20024;-48
2023/12/20 00:23:13;;;;;;;11.85;4.03;;;5.20;94.50;;;;;;5076817;28;20040;-47
2023/12/20 00:25:42;;;;;;;12.88;2.63;;;5.30;94.60;;;;;;5094441;28;20047;-49
2023/12/20 00:28:09;;;;;;;11.35;2.70;;;5.20;94.80;;;;;;5094397;28;20024;-47
2023/12/20 00:30:36;;;;;;;16.98;3.78;;;5.40;94.80;;;;;;5094114;28;20028;-49
2023/12/20 00:33:02;;;;;;;17.63;4.43;;;5.40;94.90;;;;;;5075288;28;20107;-49
2023/12/20 00:35:29;;;;;;;12.63;2.60;;;5.50;95.00;;;;;;5073910;28;20147;-50
2023/12/20 00:37:55;;;;;;;14.20;3.22;;;5.60;95.10;;;;;;5073909;28;20017;-53
2023/12/20 00:40:22;;;;;;;51.58;20.00;;;5.70;95.10;;;;;;5072440;28;20339;-49
2023/12/20 00:42:48;;;;;;;23.25;7.53;;;5.70;95.00;;;;;;5072535;28;20039;-48
2023/12/20 00:45:15;;;;;;;11.35;2.40;;;5.70;94.90;;;;;;5073974;28;20024;-48
2023/12/20 00:47:42;;;;;;;17.20;2.72;;;5.70;94.70;;;;;;5073707;28;20111;-48
2023/12/20 00:50:09;;;;;;;17.08;4.68;;;5.60;94.60;;;;;;5073608;28;20396;-48
2023/12/20 00:52:36;;;;;;;11.18;1.90;;;5.60;94.50;;;;;;5056044;28;20516;-48
2023/12/20 00:55:03;;;;;;;12.82;1.85;;;5.60;94.30;;;;;;5073539;28;20028;-48
2023/12/20 00:57:31;;;;;;;13.57;3.05;;;5.60;94.30;;;;;;5074270;28;20024;-48
2023/12/20 01:00:00;;;;;;;15.63;2.25;;;5.60;94.20;;;;;;5073479;28;20417;-48
2023/12/20 01:02:26;;;;;;;17.10;3.83;;;5.50;94.30;;;;;;5073542;28;20151;-48
2023/12/20 01:04:55;;;;;;;18.25;3.25;;;5.50;94.20;;;;;;5073913;28;20054;-48
2023/12/20 01:07:21;;;;;;;15.15;3.10;;;5.50;94.30;;;;;;5073807;28;20063;-48
2023/12/20 01:09:47;;;;;;;14.60;2.95;;;5.50;94.20;;;;;;5073070;28;20059;-47
2023/12/20 01:12:14;;;;;;;10.60;2.33;;;5.50;94.30;;;;;;5073234;28;20037;-47
2023/12/20 01:14:42;;;;;;;13.65;3.72;;;5.50;94.20;;;;;;5073247;28;20027;-48
2023/12/20 01:17:09;;;;;;;13.00;2.92;;;5.50;94.30;;;;;;5072801;28;20036;-47
2023/12/20 01:19:36;;;;;;;14.50;2.40;;;5.50;94.30;;;;;;5073021;28;20071;-47
2023/12/20 01:22:04;;;;;;;16.10;3.13;;;5.60;94.30;;;;;;5073864;28;20130;-47
2023/12/20 01:24:31;;;;;;;17.70;2.53;;;5.50;94.30;;;;;;5087004;28;20047;-47
2023/12/20 01:26:58;;;;;;;17.85;3.25;;;5.50;94.30;;;;;;5093537;28;20295;-47
2023/12/20 01:29:26;;;;;;;14.73;2.88;;;5.50;94.20;;;;;;5081777;28;20043;-47
2023/12/20 01:31:54;;;;;;;11.93;1.95;;;5.50;94.20;;;;;;5068884;28;20032;-47
2023/12/20 01:34:22;;;;;;;10.52;2.10;;;5.50;94.20;;;;;;5072777;28;20123;-47
2023/12/20 01:36:49;;;;;;;17.42;3.47;;;5.50;94.10;;;;;;5072913;28;20029;-47
2023/12/20 01:39:17;;;;;;;7.60;2.10;;;5.50;94.10;;;;;;5072186;28;20036;-48
2023/12/20 01:41:43;;;;;;;10.20;2.80;;;5.50;94.00;;;;;;5054665;28;20040;-47
2023/12/20 01:44:10;;;;;;;17.17;2.55;;;5.50;93.80;;;;;;5072321;28;20025;-47
2023/12/20 01:46:37;;;;;;;8.98;1.83;;;5.50;93.60;;;;;;5084632;28;20063;-46
2023/12/20 01:49:04;;;;;;;8.48;1.98;;;5.50;93.40;;;;;;5074654;28;20063;-46
2023/12/20 01:51:33;;;;;;;15.00;2.13;;;5.50;93.40;;;;;;5092868;28;20172;-47
2023/12/20 01:54:00;;;;;;;13.85;2.10;;;5.50;93.40;;;;;;5073070;28;20044;-46
2023/12/20 01:56:32;;;;;;;10.35;2.15;;;5.60;93.50;;;;;;5072875;28;20102;-47
2023/12/20 01:59:00;;;;;;;14.10;3.78;;;5.50;93.40;;;;;;5056130;28;20037;-46
2023/12/20 02:01:28;;;;;;;16.05;4.05;;;5.60;93.50;;;;;;5075182;28;20028;-46
2023/12/20 02:03:56;;;;;;;10.60;2.53;;;5.60;93.50;;;;;;5092657;28;20331;-47
2023/12/20 02:09:45;;;;;;;7.72;1.75;;;5.70;93.70;;;;;;5095371;28;20390;-46
2023/12/20 02:12:12;;;;;;;16.95;3.95;;;5.70;93.80;;;;;;5093722;28;20034;-47
2023/12/20 02:14:38;;;;;;;13.50;3.67;;;5.70;93.70;;;;;;5102616;28;20453;-46
2023/12/20 02:17:05;;;;;;;15.52;3.15;;;5.70;93.60;;;;;;5096077;28;20020;-46
2023/12/20 02:19:31;;;;;;;21.02;4.00;;;5.70;93.50;;;;;;5086006;28;20077;-46
2023/12/20 02:22:11;;;;;;;19.33;3.63;;;5.70;93.40;;;;;;5093437;28;20024;-47
2023/12/20 02:24:37;;;;;;;10.35;2.97;;;5.70;93.30;;;;;;5105165;28;20152;-46
2023/12/20 02:27:07;;;;;;;13.63;3.40;;;5.70;93.20;;;;;;5073270;28;20043;-46
2023/12/20 02:29:35;;;;;;;17.33;2.80;;;5.70;93.20;;;;;;5072550;28;20043;-46
2023/12/20 02:32:02;;;;;;;14.57;3.78;;;5.70;93.20;;;;;;5076882;28;20034;-45
2023/12/20 02:34:29;;;;;;;11.02;2.42;;;5.70;93.30;;;;;;5086208;28;20037;-46
2023/12/20 02:36:55;;;;;;;15.20;3.38;;;5.60;93.30;;;;;;5072563;28;20027;-47
2023/12/20 02:39:22;;;;;;;8.98;2.35;;;5.70;93.40;;;;;;5072957;28;20050;-46
2023/12/20 02:41:48;;;;;;;13.63;3.50;;;5.70;93.50;;;;;;5072636;28;20048;-46
2023/12/20 02:44:14;;;;;;;18.63;2.88;;;5.70;93.50;;;;;;5072800;28;20068;-46
2023/12/20 02:46:41;;;;;;;10.65;2.95;;;5.70;93.40;;;;;;5072497;28;20029;-46
2023/12/20 02:49:08;;;;;;;16.80;3.15;;;5.70;93.40;;;;;;5076198;28;20509;-46
2023/12/20 02:51:34;;;;;;;17.75;2.75;;;5.70;93.40;;;;;;5092848;28;20035;-45
2023/12/20 02:54:01;;;;;;;17.95;5.07;;;5.70;93.50;;;;;;5087186;28;20033;-46
2023/12/20 02:56:28;;;;;;;12.88;2.78;;;5.70;93.50;;;;;;5071495;28;20311;-46
2023/12/20 02:58:55;;;;;;;17.27;5.30;;;5.70;93.60;;;;;;5071682;28;20043;-49
2023/12/20 03:01:22;;;;;;;21.38;3.95;;;5.80;93.70;;;;;;5072189;28;20349;-53
2023/12/20 03:03:49;;;;;;;18.63;4.40;;;5.80;93.80;;;;;;5073421;28;20487;-54
2023/12/20 03:06:18;;;;;;;11.93;3.42;;;5.90;93.90;;;;;;5075356;28;20039;-50
2023/12/20 03:08:44;;;;;;;12.00;2.38;;;5.90;94.00;;;;;;5074809;28;20028;-50
2023/12/20 03:11:10;;;;;;;13.93;2.67;;;5.90;94.00;;;;;;5074848;28;20307;-50
2023/12/20 03:13:36;;;;;;;14.32;3.15;;;5.90;94.00;;;;;;5074320;28;20093;-49
2023/12/20 03:16:13;;;;;;;17.48;4.30;;;5.90;93.90;;;;;;5075482;28;20047;-50
2023/12/20 03:18:40;;;;;;;16.95;3.75;;;5.90;94.00;;;;;;5075829;28;20055;-48
2023/12/20 03:21:07;;;;;;;17.35;3.20;;;5.90;94.00;;;;;;5075398;28;20024;-49
2023/12/20 03:23:34;;;;;;;19.50;3.30;;;5.90;94.10;;;;;;5082025;28;20042;-48
2023/12/20 03:26:01;;;;;;;15.23;3.92;;;5.90;94.10;;;;;;5095898;28;20024;-48
2023/12/20 03:28:28;;;;;;;14.80;3.03;;;5.90;94.10;;;;;;5094665;28;20056;-48
2023/12/20 03:30:55;;;;;;;11.63;2.80;;;5.90;94.10;;;;;;5075524;28;20040;-48
2023/12/20 03:33:22;;;;;;;12.13;2.42;;;5.90;94.00;;;;;;5075722;28;20094;-48
2023/12/20 03:35:48;;;;;;;12.45;2.30;;;5.90;94.00;;;;;;5075236;28;20032;-48
2023/12/20 03:38:15;;;;;;;8.13;1.75;;;5.90;93.90;;;;;;5075269;28;20021;-48
2023/12/20 03:40:41;;;;;;;13.65;2.22;;;5.90;93.80;;;;;;5075324;28;20025;-49
2023/12/20 03:43:08;;;;;;;8.10;2.85;;;5.90;93.70;;;;;;5075265;28;20024;-48
2023/12/20 03:45:33;;;;;;;14.60;2.72;;;5.80;93.70;;;;;;5075107;28;20025;-48
2023/12/20 03:48:00;;;;;;;10.68;2.78;;;5.80;93.70;;;;;;5075637;28;20024;-49
2023/12/20 03:50:27;;;;;;;17.50;3.80;;;5.80;93.70;;;;;;5074960;28;20035;-47
2023/12/20 03:52:53;;;;;;;15.00;2.28;;;5.80;93.80;;;;;;5074947;28;20062;-48
2023/12/20 03:55:20;;;;;;;15.35;3.03;;;5.90;93.80;;;;;;5074800;28;20071;-47
2023/12/20 03:57:47;;;;;;;13.98;2.95;;;5.80;93.80;;;;;;5074735;28;20035;-47
2023/12/20 04:00:14;;;;;;;19.60;4.32;;;5.80;93.80;;;;;;5074602;28;20059;-47
2023/12/20 04:02:43;;;;;;;13.52;3.92;;;5.80;93.80;;;;;;5075096;28;20457;-48
2023/12/20 04:05:10;;;;;;;;;;;5.80;93.70;;;;;;5075269;28;20024;-51
2023/12/20 04:07:38;;;;;;;9.98;2.63;;;5.70;93.80;;;;;;5074683;28;20333;-49
2023/12/20 04:10:05;;;;;;;14.48;3.15;;;5.80;93.90;;;;;;5074527;28;20067;-48
2023/12/20 04:12:33;;;;;;;15.90;3.55;;;5.80;93.90;;;;;;5057393;28;20033;-47
2023/12/20 04:15:00;;;;;;;16.98;3.17;;;5.80;93.90;;;;;;5073379;28;20060;-47
2023/12/20 04:17:26;;;;;;;11.80;3.60;;;5.80;93.90;;;;;;5074941;28;20020;-48
2023/12/20 04:19:53;;;;;;;14.73;2.97;;;5.90;93.90;;;;;;5074498;28;20024;-46
2023/12/20 04:22:20;;;;;;;10.93;2.25;;;5.90;93.80;;;;;;5075005;28;20024;-46
2023/12/20 04:24:46;;;;;;;16.25;3.30;;;5.90;93.60;;;;;;5090034;28;20116;-46
2023/12/20 04:27:13;;;;;;;12.13;3.35;;;5.90;93.40;;;;;;5074397;28;20034;-46
2023/12/20 04:29:39;;;;;;;16.35;2.97;;;5.90;93.20;;;;;;5074252;28;20029;-47
2023/12/20 04:32:06;;;;;;;10.32;2.58;;;5.90;93.10;;;;;;5074116;28;20032;-47
2023/12/20 04:34:33;;;;;;;11.00;3.00;;;5.90;93.10;;;;;;5093813;28;20032;-46
2023/12/20 04:37:01;;;;;;;17.25;3.05;;;5.90;93.10;;;;;;5091900;28;20024;-46
2023/12/20 04:39:27;;;;;;;20.08;4.78;;;5.90;93.00;;;;;;5073870;28;20341;-46
2023/12/20 04:41:53;;;;;;;20.98;7.75;;;5.90;93.00;;;;;;5074383;28;20024;-46
2023/12/20 04:44:20;;;;;;;23.38;7.47;;;5.90;93.10;;;;;;5073948;28;20024;-51
2023/12/20 04:46:47;;;;;;;34.35;10.07;;;5.90;93.30;;;;;;5074102;28;20344;-55
2023/12/20 04:49:14;;;;;;;20.95;5.55;;;6.00;93.40;;;;;;5074013;28;20067;-52
2023/12/20 04:51:41;;;;;;;18.10;5.40;;;6.00;93.50;;;;;;5056004;28;20064;-56
2023/12/20 04:54:07;;;;;;;22.08;5.50;;;6.00;93.50;;;;;;5073718;28;20027;-49
2023/12/20 04:56:34;;;;;;;18.52;4.25;;;5.90;93.50;;;;;;5074301;28;20447;-49
2023/12/20 04:59:01;;;;;;;19.00;4.30;;;5.90;93.60;;;;;;5073693;28;20028;-50
2023/12/20 05:01:28;;;;;;;16.27;3.95;;;5.90;93.70;;;;;;5055737;28;20031;-48
2023/12/20 05:03:55;;;;;;;18.52;6.18;;;5.90;93.80;;;;;;5073843;28;20044;-48
2023/12/20 05:06:21;;;;;;;27.98;6.53;;;5.90;93.90;;;;;;5073651;28;20098;-48
2023/12/20 05:08:47;;;;;;;15.48;4.95;;;6.00;93.90;;;;;;5072993;28;20025;-49
2023/12/20 05:11:15;;;;;;;22.17;4.78;;;6.00;94.00;;;;;;5072570;28;20047;-48
2023/12/20 05:13:41;;;;;;;19.73;3.80;;;6.00;94.10;;;;;;5073020;28;20111;-48
2023/12/20 05:16:07;;;;;;;26.73;4.50;;;6.00;94.10;;;;;;5073706;28;20092;-48
2023/12/20 05:18:34;;;;;;;24.55;5.95;;;6.00;94.10;;;;;;5073556;28;20037;-48
2023/12/20 05:21:01;;;;;;;21.42;4.35;;;5.90;94.10;;;;;;5073260;28;20099;-47
2023/12/20 05:23:28;;;;;;;36.92;4.65;;;5.90;94.10;;;;;;5079111;28;20117;-47
2023/12/20 05:25:54;;;;;;;21.55;3.85;;;6.00;94.20;;;;;;5093354;28;20118;-47
2023/12/20 05:28:21;;;;;;;22.67;4.03;;;6.00;94.10;;;;;;5093407;28;20108;-48
2023/12/20 05:30:47;;;;;;;22.23;4.25;;;6.00;94.00;;;;;;5079804;28;20048;-47
2023/12/20 05:33:14;;;;;;;18.40;4.25;;;6.10;93.90;;;;;;5073525;28;20105;-47
2023/12/20 05:35:41;;;;;;;23.38;4.75;;;6.10;93.80;;;;;;5073351;28;20030;-47
2023/12/20 05:38:08;;;;;;;20.63;4.97;;;6.10;93.60;;;;;;5073351;28;20357;-46
2023/12/20 05:40:35;;;;;;;20.98;5.53;;;6.10;93.70;;;;;;5073692;28;20028;-48
2023/12/20 05:43:02;;;;;;;16.80;4.20;;;6.10;93.70;;;;;;5073063;28;20016;-47
2023/12/20 05:45:29;;;;;;;20.92;4.13;;;6.00;93.60;;;;;;5073360;28;20388;-46
2023/12/20 05:47:56;;;;;;;31.88;5.00;;;6.00;93.70;;;;;;5073656;28;20093;-46
2023/12/20 05:50:22;;;;;;;22.67;5.22;;;6.00;93.80;;;;;;5073415;28;20024;-46
2023/12/20 05:52:50;;;;;;;18.85;4.50;;;6.00;93.90;;;;;;5072836;28;20024;-46
2023/12/20 05:55:17;;;;;;;17.33;4.25;;;6.00;93.90;;;;;;5073057;28;20036;-46
2023/12/20 05:57:44;;;;;;;24.58;4.18;;;6.00;94.00;;;;;;5072905;28;20478;-47
2023/12/20 06:00:11;;;;;;;18.88;4.68;;;6.00;94.00;;;;;;5072969;28;20119;-48
2023/12/20 06:02:38;;;;;;;19.20;3.83;;;6.00;94.00;;;;;;5073144;28;20032;-47
2023/12/20 06:05:05;;;;;;;25.65;5.70;;;6.10;93.90;;;;;;5055220;28;20028;-47
2023/12/20 06:07:31;;;;;;;27.25;4.50;;;6.10;93.80;;;;;;5073309;28;20472;-47
2023/12/20 06:09:57;;;;;;;22.55;4.85;;;6.10;93.80;;;;;;5072632;28;20079;-47
2023/12/20 06:12:26;;;;;;;21.58;4.93;;;6.10;93.70;;;;;;5071788;28;20089;-47
2023/12/20 06:14:53;;;;;;;22.50;4.90;;;6.10;93.50;;;;;;5073270;28;20259;-47
2023/12/20 06:17:20;;;;;;;20.80;4.22;;;6.00;93.40;;;;;;5072760;28;20031;-47
2023/12/20 06:19:48;;;;;;;22.73;4.38;;;6.00;93.30;;;;;;5072591;28;20028;-47
2023/12/20 06:22:15;;;;;;;17.90;3.55;;;6.00;93.40;;;;;;5072993;28;20032;-47
2023/12/20 06:24:42;;;;;;;20.65;4.53;;;6.00;93.60;;;;;;5088768;28;20036;-46
2023/12/20 06:27:09;;;;;;;19.05;4.03;;;6.10;93.70;;;;;;5093007;28;20401;-47
2023/12/20 06:29:36;;;;;;;25.73;3.53;;;6.20;93.60;;;;;;5076404;28;20361;-47
2023/12/20 06:32:04;;;;;;;17.50;5.18;;;6.30;93.60;;;;;;5072998;28;20387;-47
2023/12/20 06:34:30;;;;;;;15.75;4.20;;;6.30;93.70;;;;;;5072670;28;20043;-47
2023/12/20 06:36:57;;;;;;;26.27;5.00;;;6.30;93.60;;;;;;5054761;28;20039;-47
2023/12/20 06:39:23;;;;;;;16.88;4.57;;;6.30;93.60;;;;;;5074856;28;20024;-46
2023/12/20 06:41:50;;;;;;;17.75;3.45;;;6.20;93.40;;;;;;5076361;28;20028;-47
2023/12/20 06:44:16;;;;;;;19.10;3.47;;;6.20;93.30;;;;;;5077080;28;20410;-46
2023/12/20 06:46:42;;;;;;;9.77;2.35;;;6.20;93.10;;;;;;5076251;28;20041;-47
2023/12/20 06:49:09;;;;;;;10.85;2.78;;;6.20;92.90;;;;;;5076461;28;20058;-46
2023/12/20 06:51:35;;;;;;;16.33;4.85;;;6.20;92.70;;;;;;5076210;28;20036;-46
2023/12/20 06:54:02;;;;;;;14.98;3.50;;;6.20;92.80;;;;;;5076536;28;20024;-46
2023/12/20 06:56:29;;;;;;;13.55;3.08;;;6.30;93.00;;;;;;5076214;28;20090;-46
2023/12/20 06:58:56;;;;;;;21.40;3.45;;;6.40;93.20;;;;;;5075891;28;20044;-47
2023/12/20 07:01:22;;;;;;;20.75;3.53;;;6.40;93.30;;;;;;5075855;28;20086;-48
2023/12/20 07:03:49;;;;;;;25.08;5.03;;;6.40;93.50;;;;;;5065310;28;20379;-48
2023/12/20 07:06:16;;;;;;;26.55;5.22;;;6.40;93.60;;;;;;5075835;28;20068;-47
2023/12/20 07:08:42;;;;;;;19.20;4.38;;;6.40;93.60;;;;;;5075806;28;20025;-48
2023/12/20 07:11:09;;;;;;;21.05;4.07;;;6.40;93.80;;;;;;5076086;28;20063;-49
2023/12/20 07:13:36;;;;;;;17.30;4.43;;;6.50;93.90;;;;;;5075864;28;20433;-47
2023/12/20 07:16:02;;;;;;;25.80;5.82;;;6.40;94.00;;;;;;5076159;28;20082;-52
2023/12/20 07:18:29;;;;;;;24.92;4.72;;;6.40;94.10;;;;;;5075742;28;20029;-50
2023/12/20 07:20:55;;;;;;;21.83;4.70;;;6.50;94.20;;;;;;5075587;28;20028;-50
2023/12/20 07:23:21;;;;;;;20.95;5.32;;;6.50;94.20;;;;;;5081012;28;20111;-54
2023/12/20 07:25:48;;;;;;;21.10;4.65;;;6.40;94.20;;;;;;5096042;28;20213;-53
2023/12/20 07:28:14;;;;;;;19.02;4.90;;;6.40;94.20;;;;;;5087950;28;20028;-52
2023/12/20 07:30:42;;;;;;;20.42;4.70;;;6.40;94.30;;;;;;5075499;28;20024;-58
2023/12/20 07:33:09;;;;;;;15.65;3.78;;;6.50;94.40;;;;;;5075395;28;20103;-50
2023/12/20 07:35:36;;;;;;;15.95;3.80;;;6.50;94.40;;;;;;5095850;28;20051;-59
2023/12/20 07:38:03;;;;;;;17.02;5.30;;;6.50;94.50;;;;;;5095425;28;20026;-58
2023/12/20 07:40:30;;;;;;;19.80;4.97;;;6.50;94.60;;;;;;5095704;28;20035;-51
2023/12/20 07:42:58;;;;;;;21.77;4.22;;;6.50;94.70;;;;;;5084765;28;20020;-56
2023/12/20 07:45:24;;;;;;;23.83;4.55;;;6.50;94.70;;;;;;5075032;28;20059;-57
2023/12/20 07:47:51;;;;;;;24.65;5.80;;;6.50;94.70;;;;;;5075771;28;20029;-55
2023/12/20 07:50:16;;;;;;;15.80;4.10;;;6.50;94.70;;;;;;5075357;28;20043;-54
2023/12/20 07:52:42;;;;;;;21.08;4.68;;;6.50;94.80;;;;;;5075043;28;20107;-52
2023/12/20 07:55:09;;;;;;;25.70;5.13;;;6.50;94.90;;;;;;5075699;28;20044;-49
2023/12/20 07:57:36;;;;;;;25.75;9.27;;;6.50;94.90;;;;;;5075205;28;20069;-54
2023/12/20 08:00:03;;;;;;;26.33;6.65;;;6.50;94.90;;;;;;5075546;28;20024;-52
2023/12/20 08:02:30;;;;;;;24.73;5.03;;;6.60;95.00;;;;;;5074809;28;20107;-50
2023/12/20 08:04:57;;;;;;;19.02;5.20;;;6.70;95.00;;;;;;5057120;28;20076;-49
2023/12/20 08:07:24;;;;;;;26.95;5.78;;;6.70;95.00;;;;;;5075112;28;20036;-50
2023/12/20 08:09:51;;;;;;;6.22;3.00;;;6.70;95.10;;;;;;5091002;28;20072;-57
2023/12/20 08:12:19;;;;;;;8.95;1.30;;;5.90;92.00;;;;;;5090198;28;20044;-59
2023/12/20 08:14:46;;;;;;;8.43;2.05;;;4.90;91.20;;;;;;5074496;28;20032;-54
2023/12/20 08:17:16;;;;;;;17.20;2.55;;;4.60;92.00;;;;;;5074539;28;20074;-61
2023/12/20 08:19:42;;;;;;;7.95;1.58;;;4.40;92.70;;;;;;5056998;28;20477;-60
2023/12/20 08:22:09;;;;;;;19.10;3.35;;;4.30;93.40;;;;;;5074810;28;20020;-60
2023/12/20 08:24:36;;;;;;;7.47;1.70;;;4.30;94.00;;;;;;5089521;28;20032;-57
2023/12/20 08:27:04;;;;;;;16.45;2.88;;;4.40;94.30;;;;;;5094133;28;20035;-54
2023/12/20 08:29:31;;;;;;;14.85;2.03;;;4.40;94.60;;;;;;5082627;28;20020;-53
2023/12/20 08:31:59;;;;;;;12.57;2.15;;;4.50;94.80;;;;;;5073589;28;20036;-54
2023/12/20 08:34:26;;;;;;;15.02;2.63;;;4.50;95.00;;;;;;5074464;28;20028;-51
2023/12/20 08:36:53;;;;;;;14.60;2.65;;;4.60;95.20;;;;;;5074487;28;20036;-48
2023/12/20 08:39:20;;;;;;;14.50;2.05;;;4.70;95.20;;;;;;5074176;28;20038;-49
2023/12/20 08:41:47;;;;;;;10.48;2.33;;;4.80;95.40;;;;;;5074731;28;20016;-54
2023/12/20 08:44:13;;;;;;;15.40;2.47;;;4.90;95.40;;;;;;5056418;28;20257;-51
2023/12/20 08:46:39;;;;;;;12.77;2.10;;;5.00;95.40;;;;;;5074651;28;20271;-55
2023/12/20 08:49:05;;;;;;;12.85;2.47;;;5.10;95.40;;;;;;5074080;28;20353;-51
2023/12/20 08:51:33;;;;;;;13.18;2.05;;;5.20;95.10;;;;;;5073788;28;20020;-49
2023/12/20 08:54:00;;;;;;;8.15;1.42;;;5.20;94.90;;;;;;5073879;28;20039;-49
2023/12/20 08:56:25;;;;;;;10.05;1.85;;;5.30;94.60;;;;;;5074468;28;20040;-49
2023/12/20 08:58:52;;;;;;;13.82;2.13;;;5.30;94.40;;;;;;5073878;28;20033;-48
2023/12/20 09:01:19;;;;;;;11.25;1.42;;;5.30;94.20;;;;;;5055110;28;20350;-51
2023/12/20 09:03:46;;;;;;;7.47;1.20;;;5.30;93.90;;;;;;5074108;28;20787;-48
2023/12/20 09:06:12;;;;;;;8.50;2.15;;;5.30;93.70;;;;;;5073618;28;20032;-47
2023/12/20 09:08:39;;;;;;;7.60;1.98;;;5.30;93.50;;;;;;5073550;28;20043;-48
2023/12/20 09:11:06;;;;;;;13.55;2.08;;;5.40;93.40;;;;;;5073181;28;20071;-48
2023/12/20 09:13:33;;;;;;;9.15;2.20;;;5.40;93.30;;;;;;5073414;28;20086;-48
2023/12/20 09:16:01;;;;;;;11.82;1.80;;;5.40;93.10;;;;;;5073310;28;20430;-47
2023/12/20 09:18:27;;;;;;;6.13;1.98;;;5.40;92.70;;;;;;5073409;28;20089;-48
2023/12/20 09:20:53;;;;;;;6.88;1.67;;;5.40;92.40;;;;;;5074064;28;20035;-50
2023/12/20 09:23:19;;;;;;;7.07;1.55;;;5.40;92.30;;;;;;5077703;28;20369;-47
2023/12/20 09:25:46;;;;;;;7.43;1.60;;;5.40;92.30;;;;;;5059873;28;20469;-46
2023/12/20 09:28:13;;;;;;;9.68;2.00;;;5.50;92.30;;;;;;5055459;28;20129;-46
2023/12/20 09:30:40;;;;;;;11.13;1.40;;;5.60;92.40;;;;;;5073567;28;20095;-46
2023/12/20 09:33:07;;;;;;;12.45;2.40;;;5.60;92.30;;;;;;5073112;28;20032;-47
2023/12/20 09:35:34;;;;;;;13.55;2.55;;;5.60;92.20;;;;;;5073031;28;20396;-46
2023/12/20 09:38:01;;;;;;;12.68;3.00;;;5.60;92.20;;;;;;5072880;28;20096;-47
2023/12/20 09:40:31;;;;;;;8.38;2.47;;;5.70;92.40;;;;;;5072943;28;20150;-46
2023/12/20 09:43:05;;;;;;;8.93;2.10;;;5.70;92.40;;;;;;5073095;28;20021;-47
2023/12/20 09:45:32;;;;;;;14.07;3.33;;;5.80;92.50;;;;;;5072896;28;20434;-46
2023/12/20 09:47:59;;;;;;;12.50;1.90;;;5.80;92.40;;;;;;5072782;28;20361;-45
2023/12/20 09:50:25;;;;;;;11.10;1.92;;;5.90;92.40;;;;;;5073397;28;20496;-47
2023/12/20 09:52:53;;;;;;;10.10;1.60;;;5.90;92.10;;;;;;5072826;28;20028;-47
2023/12/20 09:55:21;;;;;;;12.30;2.15;;;5.90;91.60;;;;;;5072785;28;20052;-47
2023/12/20 09:57:48;;;;;;;12.48;2.75;;;6.00;91.40;;;;;;5072801;28;20029;-47
2023/12/20 10:00:14;;;;;;;10.35;2.17;;;6.00;90.90;;;;;;5073632;28;20111;-46
2023/12/20 10:02:57;;;;;;;10.60;1.88;;;6.10;90.60;;;;;;5072518;28;20021;-45
2023/12/20 10:05:28;;;;;;;7.97;1.80;;;6.10;90.50;;;;;;5064826;28;20032;-48
2023/12/20 10:07:56;;;;;;;10.07;1.77;;;6.10;90.60;;;;;;5055128;28;20056;-47
2023/12/20 10:10:22;;;;;;;9.63;2.20;;;6.10;90.60;;;;;;5072653;28;20044;-46
2023/12/20 10:13:09;;;;;;;12.82;2.58;;;6.10;90.70;;;;;;5074654;28;20475;-47
2023/12/20 10:15:37;;;;;;;12.15;3.10;;;6.20;90.70;;;;;;5076929;28;20349;-46
2023/12/20 10:18:04;;;;;;;13.82;2.55;;;6.30;90.70;;;;;;5076879;28;20098;-46
2023/12/20 10:20:31;;;;;;;16.38;3.80;;;6.40;90.60;;;;;;5077019;28;20322;-47
2023/12/20 10:22:59;;;;;;;16.83;4.13;;;6.40;90.30;;;;;;5078065;28;20027;-47
2023/12/20 10:25:27;;;;;;;15.13;2.67;;;6.50;90.50;;;;;;5087099;28;20029;-47
2023/12/20 10:28:12;;;;;;;12.50;2.55;;;6.60;90.30;;;;;;5058714;28;20442;-48
2023/12/20 10:30:40;;;;;;;14.30;2.97;;;6.60;90.30;;;;;;5077312;28;20109;-48
2023/12/20 10:33:08;;;;;;;18.08;2.40;;;6.70;89.80;;;;;;5076276;28;20462;-47
2023/12/20 10:35:35;;;;;;;11.82;2.60;;;6.70;89.80;;;;;;5076693;28;20036;-47
2023/12/20 10:38:07;;;;;;;15.77;3.45;;;6.70;89.70;;;;;;5076780;28;20085;-48
2023/12/20 10:40:36;;;;;;;13.35;2.67;;;6.60;89.80;;;;;;5076988;28;20500;-48
2023/12/20 10:43:04;;;;;;;21.50;3.83;;;6.60;89.50;;;;;;5076636;28;20047;-48
2023/12/20 10:45:29;;;;;;;20.70;3.95;;;6.60;89.60;;;;;;5076459;28;20051;-47
2023/12/20 10:47:59;;;;;;;25.17;3.97;;;6.70;90.00;;;;;;5076344;28;20349;-47
2023/12/20 10:50:28;;;;;;;12.77;3.72;;;6.90;90.20;;;;;;5076987;28;20032;-48
2023/12/20 10:52:56;;;;;;;10.33;2.30;;;7.10;90.10;;;;;;5076364;28;20032;-48
2023/12/20 10:55:23;;;;;;;12.10;2.40;;;6.70;87.90;;;;;;5076011;28;20060;-50
2023/12/20 10:58:01;;;;;;;9.43;2.47;;;6.40;87.90;;;;;;5075987;28;20054;-48
2023/12/20 11:00:30;;;;;;;10.27;1.90;;;6.10;87.90;;;;;;5076735;28;20033;-49
2023/12/20 11:03:00;;;;;;;9.85;2.08;;;5.90;87.70;;;;;;5076305;28;20299;-47
2023/12/20 11:05:45;;;;;;;7.13;1.52;;;5.90;87.60;;;;;;5075995;28;20784;-46
2023/12/20 11:08:31;;;;;;;17.23;2.25;;;5.90;87.90;;;;;;5076312;28;20032;-46
2023/12/20 11:11:19;;;;;;;9.45;2.33;;;5.90;88.40;;;;;;5076029;28;20466;-45
2023/12/20 11:14:14;;;;;;;15.05;3.13;;;5.90;88.60;;;;;;5075349;28;20051;-45
2023/12/20 11:16:41;;;;;;;17.98;3.33;;;5.90;88.60;;;;;;5075627;28;20484;-45
2023/12/20 11:19:13;;;;;;;14.18;2.78;;;6.00;89.00;;;;;;5075874;28;20036;-47
2023/12/20 11:21:40;;;;;;;13.20;2.80;;;6.00;89.20;;;;;;5075649;28;20334;-45
2023/12/20 11:24:07;;;;;;;18.45;4.75;;;6.00;89.30;;;;;;5085908;28;20136;-45
2023/12/20 11:26:34;;;;;;;22.40;3.17;;;6.00;89.40;;;;;;5096037;28;20350;-44
2023/12/20 11:29:36;;;;;;;15.90;2.80;;;6.00;89.40;;;;;;5080017;28;20433;-47
2023/12/20 11:32:04;;;;;;;16.75;3.47;;;6.00;89.60;;;;;;5075096;28;20390;-47
2023/12/20 11:34:36;;;;;;;20.58;5.18;;;6.10;89.70;;;;;;5074968;28;20416;-45
2023/12/20 11:37:03;;;;;;;15.25;4.22;;;6.10;89.90;;;;;;5074987;28;20366;-46
2023/12/20 11:39:31;;;;;;;20.92;4.10;;;6.10;89.90;;;;;;5074706;28;20021;-45
2023/12/20 11:41:57;;;;;;;23.10;5.53;;;6.00;90.00;;;;;;5074930;28;20056;-46
2023/12/20 11:44:26;;;;;;;15.65;4.72;;;6.10;90.00;;;;;;5074854;28;20120;-47
2023/12/20 11:46:52;;;;;;;22.40;4.20;;;6.10;89.90;;;;;;5075248;28;20021;-45
2023/12/20 11:49:18;;;;;;;20.65;5.38;;;6.20;89.90;;;;;;5075472;28;20043;-45
2023/12/20 11:51:45;;;;;;;19.58;5.07;;;6.30;89.90;;;;;;5075530;28;20338;-46
2023/12/20 11:54:16;;;;;;;19.90;3.75;;;6.30;89.70;;;;;;5075210;28;20024;-48
2023/12/20 11:56:43;;;;;;;23.52;4.93;;;6.40;89.50;;;;;;5074764;28;20054;-46
2023/12/20 11:59:11;;;;;;;18.23;4.55;;;6.50;89.30;;;;;;5074991;28;20016;-46
2023/12/20 12:01:37;;;;;;;22.33;5.00;;;6.50;88.90;;;;;;5075074;28;20028;-46
2023/12/20 12:04:05;;;;;;;27.52;7.10;;;6.60;88.30;;;;;;5074447;28;20044;-46
2023/12/20 12:06:33;;;;;;;25.13;5.22;;;6.60;87.70;;;;;;5074871;28;20020;-49
2023/12/20 12:09:00;;;;;;;19.30;4.47;;;6.70;87.30;;;;;;5075071;28;20437;-46
2023/12/20 12:11:27;;;;;;;22.55;4.63;;;6.70;86.50;;;;;;5073659;28;20056;-47
2023/12/20 12:13:54;;;;;;;23.77;5.18;;;6.80;86.60;;;;;;5075073;28;20133;-46
2023/12/20 12:16:20;;;;;;;23.15;4.57;;;6.80;85.70;;;;;;5074574;28;20063;-47
2023/12/20 12:18:46;;;;;;;24.58;5.07;;;6.80;85.40;;;;;;5074675;28;20091;-47
2023/12/20 12:21:22;;;;;;;26.42;4.93;;;6.80;84.60;;;;;;5074686;28;20032;-46
2023/12/20 12:23:49;;;;;;;25.58;5.13;;;6.90;84.20;;;;;;5083027;28;20111;-47
2023/12/20 12:26:16;;;;;;;22.23;5.38;;;6.90;83.60;;;;;;5086615;28;20473;-47
2023/12/20 12:28:43;;;;;;;14.55;3.88;;;6.90;83.60;;;;;;5074360;28;20438;-47
2023/12/20 12:31:15;;;;;;;19.60;4.03;;;6.90;83.10;;;;;;5074697;28;20121;-48
2023/12/20 12:33:43;;;;;;;25.58;5.25;;;6.90;83.20;;;;;;5074437;28;20111;-48
2023/12/20 12:36:11;;;;;;;24.40;6.65;;;6.90;83.20;;;;;;5072997;28;20438;-53
2023/12/20 12:38:38;;;;;;;21.00;4.43;;;6.90;83.70;;;;;;5074155;28;20016;-48
2023/12/20 12:41:05;;;;;;;22.52;5.32;;;7.00;84.10;;;;;;5074857;28;20094;-48
2023/12/20 12:43:32;;;;;;;21.98;5.72;;;7.10;84.20;;;;;;5074225;28;20090;-49
2023/12/20 12:45:59;;;;;;;23.67;6.65;;;7.20;84.30;;;;;;5073672;28;20043;-48
2023/12/20 12:48:27;;;;;;;18.63;5.72;;;7.20;84.20;;;;;;5056043;28;20020;-49
2023/12/20 12:50:58;;;;;;;29.73;7.45;;;7.10;85.00;;;;;;5094163;28;20020;-48
2023/12/20 12:53:27;;;;;;;28.75;6.75;;;7.10;85.50;;;;;;5085947;28;20040;-45